Argenta, Texas
Current Conditions -  °F | °C
As of 5:35 PM on Monday 22 Dec 2014 (Local Time) from KRBO Reporting Station
Clear Clear  
Wind Chill: 73°   Ceiling: Unl
Heat Index: 73°   Visibility: 10mi
Dew Point: 58°   Wind: 0mph
Humidity: 60%   Direction: NA
Pressure: 29.63"   Gusts: NA
Location:  28.0654°N, 97.7489°W
Report Text: KRBO 222335Z AUTO 00000KT 10SM CLR 23/15 A2963 RMK AO2 T02260146
Loading
Personal Weather Stations






























Interactive Weather Map New forecast layout! Learn more

10-Day Weather Forecast

Advertisements
Track Severe Weather on mobile